Time;durP1;ratioP1;P1;durP2;ratioP2;P2;SDS_P1;SDS_P2;PMS_P1;PMS_P2;Temp;Humidity;BMP_temperature;BMP_pressure;BME280_temperature;BME280_humidity;BME280_pressure;Samples;Min_cycle;Max_cycle;Signal;HPM_P1;HPM_P2
2022/05/18 00:00:57;;;;;;;1.30;1.02;;;;;;;;;;5043405;28;20434;-79
2022/05/18 00:03:24;;;;;;;0.70;0.70;;;;;;;;;;5048755;28;20047;-79
2022/05/18 00:05:50;;;;;;;2.17;0.40;;;;;;;;;;5047754;28;20348;-79
2022/05/18 00:08:16;;;;;;;0.35;0.25;;;;;;;;;;5047075;28;20475;-77
2022/05/18 00:10:43;;;;;;;6.43;0.60;;;;;;;;;;5040590;28;20068;-79
2022/05/18 00:13:09;;;;;;;1.42;0.82;;;;;;;;;;5047883;28;20044;-79
2022/05/18 00:15:36;;;;;;;8.07;0.40;;;;;;;;;;5048306;28;20787;-79
2022/05/18 00:18:02;;;;;;;0.50;0.50;;;;;;;;;;5047162;28;20422;-79
2022/05/18 00:20:28;;;;;;;0.77;0.77;;;;;;;;;;5047735;28;20032;-79
2022/05/18 00:22:55;;;;;;;0.45;0.45;;;;;;;;;;5048144;28;20091;-79
2022/05/18 00:25:23;;;;;;;1.10;0.80;;;;;;;;;;5040466;28;20514;-79
2022/05/18 00:27:49;;;;;;;0.80;0.70;;;;;;;;;;5046683;28;20036;-79
2022/05/18 00:30:15;;;;;;;0.40;0.40;;;;;;;;;;5039265;28;20117;-79
2022/05/18 00:32:41;;;;;;;1.42;0.93;;;;;;;;;;5039518;28;20041;-79
2022/05/18 00:35:08;;;;;;;0.30;0.30;;;;;;;;;;5043964;28;20025;-79
2022/05/18 00:37:34;;;;;;;0.52;0.45;;;;;;;;;;5044766;28;20479;-79
2022/05/18 00:40:00;;;;;;;0.80;0.50;;;;;;;;;;5048710;28;20033;-79
2022/05/18 00:42:26;;;;;;;1.05;0.68;;;;;;;;;;5039917;28;20025;-78
2022/05/18 00:44:52;;;;;;;1.35;0.50;;;;;;;;;;5044120;28;20391;-79
2022/05/18 00:47:21;;;;;;;0.60;0.60;;;;;;;;;;5047617;28;20037;-79
2022/05/18 00:49:55;;;;;;;1.00;0.68;;;;;;;;;;5041789;28;20025;-78
2022/05/18 00:52:29;;;;;;;0.43;0.43;;;;;;;;;;5048441;28;20029;-78
2022/05/18 00:54:56;;;;;;;0.57;0.38;;;;;;;;;;5046455;28;20112;-79
2022/05/18 00:57:27;;;;;;;0.98;0.40;;;;;;;;;;5044378;28;20039;-79
2022/05/18 00:59:57;;;;;;;1.27;0.55;;;;;;;;;;5047447;28;20029;-78
2022/05/18 01:02:27;;;;;;;0.73;0.70;;;;;;;;;;5048346;28;20112;-78
2022/05/18 01:04:56;;;;;;;0.55;0.30;;;;;;;;;;5046856;28;20630;-79
2022/05/18 01:07:25;;;;;;;0.63;0.30;;;;;;;;;;5044131;28;20776;-79
2022/05/18 01:09:50;;;;;;;0.43;0.43;;;;;;;;;;5041148;28;20119;-79
2022/05/18 01:12:18;;;;;;;0.40;0.35;;;;;;;;;;5043143;28;20985;-79
2022/05/18 01:14:55;;;;;;;0.70;0.30;;;;;;;;;;5045141;28;20040;-79
2022/05/18 01:17:26;;;;;;;1.08;0.85;;;;;;;;;;5046789;28;20674;-79
2022/05/18 01:19:57;;;;;;;0.28;0.28;;;;;;;;;;5045086;28;20025;-79
2022/05/18 01:22:42;;;;;;;0.50;0.50;;;;;;;;;;5045094;28;20107;-79
2022/05/18 01:25:08;;;;;;;0.50;0.40;;;;;;;;;;5040189;28;20043;-78
2022/05/18 01:27:34;;;;;;;0.52;0.30;;;;;;;;;;5044331;28;20025;-79
2022/05/18 01:30:00;;;;;;;0.57;0.57;;;;;;;;;;5045949;28;20041;-78
2022/05/18 01:32:26;;;;;;;0.30;0.25;;;;;;;;;;5040814;28;20050;-79
2022/05/18 01:34:52;;;;;;;0.20;0.20;;;;;;;;;;5043445;28;20059;-80
2022/05/18 01:37:18;;;;;;;1.75;0.80;;;;;;;;;;5042461;28;20021;-79
2022/05/18 01:39:47;;;;;;;0.38;0.38;;;;;;;;;;5047828;28;20430;-79
2022/05/18 01:42:27;;;;;;;14.80;1.45;;;;;;;;;;5043440;28;20032;-79
2022/05/18 01:44:53;;;;;;;2.47;0.77;;;;;;;;;;5044085;28;20025;-79
2022/05/18 01:47:19;;;;;;;0.43;0.43;;;;;;;;;;5045780;28;20526;-79
2022/05/18 01:49:45;;;;;;;0.20;0.20;;;;;;;;;;5041643;28;20475;-78
2022/05/18 01:52:11;;;;;;;0.10;0.10;;;;;;;;;;5043773;28;20031;-79
2022/05/18 01:54:39;;;;;;;0.75;0.75;;;;;;;;;;5045503;28;20558;-79
2022/05/18 01:57:05;;;;;;;1.17;0.30;;;;;;;;;;5045653;28;20025;-79
2022/05/18 01:59:31;;;;;;;0.20;0.20;;;;;;;;;;5042185;28;20055;-80
2022/05/18 02:01:58;;;;;;;0.28;0.28;;;;;;;;;;5046031;28;20025;-79
2022/05/18 02:04:23;;;;;;;0.55;0.28;;;;;;;;;;5043736;28;20115;-78
2022/05/18 02:06:49;;;;;;;0.75;0.75;;;;;;;;;;5044464;28;20483;-78
2022/05/18 02:09:16;;;;;;;0.40;0.40;;;;;;;;;;5041116;28;20034;-79
2022/05/18 02:11:43;;;;;;;1.45;1.05;;;;;;;;;;5043917;28;20060;-79
2022/05/18 02:14:09;;;;;;;2.80;0.98;;;;;;;;;;5038533;28;20104;-79
2022/05/18 02:16:36;;;;;;;0.30;0.30;;;;;;;;;;5045450;28;20031;-79
2022/05/18 02:19:02;;;;;;;0.40;0.40;;;;;;;;;;5043346;28;20048;-79
2022/05/18 02:21:28;;;;;;;0.80;0.80;;;;;;;;;;5042713;28;20052;-78
2022/05/18 02:23:53;;;;;;;0.50;0.50;;;;;;;;;;5046571;28;20135;-79
2022/05/18 02:26:21;;;;;;;0.10;0.10;;;;;;;;;;5049461;28;20040;-78
2022/05/18 02:28:47;;;;;;;0.22;0.22;;;;;;;;;;5050669;28;20025;-79
2022/05/18 02:31:13;;;;;;;0.30;0.30;;;;;;;;;;5047214;28;20029;-79
2022/05/18 02:33:39;;;;;;;0.30;0.30;;;;;;;;;;5048827;28;20028;-79
2022/05/18 02:36:07;;;;;;;1.27;0.75;;;;;;;;;;5045886;28;20027;-79
2022/05/18 02:38:33;;;;;;;0.25;0.10;;;;;;;;;;5045020;28;20034;-79
2022/05/18 02:40:59;;;;;;;0.80;0.40;;;;;;;;;;5049538;28;20029;-79
2022/05/18 02:43:25;;;;;;;0.50;0.50;;;;;;;;;;5042564;28;20124;-79
2022/05/18 02:46:00;;;;;;;0.57;0.57;;;;;;;;;;5048077;28;20028;-79
2022/05/18 02:48:26;;;;;;;0.57;0.38;;;;;;;;;;5049150;28;20036;-79
2022/05/18 02:50:52;;;;;;;0.30;0.20;;;;;;;;;;5048099;28;20037;-79
2022/05/18 02:53:18;;;;;;;0.28;0.10;;;;;;;;;;5046450;28;20024;-79
2022/05/18 02:58:28;;;;;;;0.75;0.38;;;;;;;;;;5048994;28;20040;-76
2022/05/18 03:00:56;;;;;;;0.38;0.30;;;;;;;;;;5045460;28;20017;-75
2022/05/18 03:03:22;;;;;;;0.17;0.17;;;;;;;;;;5046224;28;20480;-76
2022/05/18 03:05:48;;;;;;;0.15;0.15;;;;;;;;;;5047810;28;20041;-75
2022/05/18 03:08:14;;;;;;;0.55;0.30;;;;;;;;;;5046005;28;20063;-76
2022/05/18 03:10:41;;;;;;;0.22;0.22;;;;;;;;;;5048222;28;20037;-76
2022/05/18 03:13:07;;;;;;;0.68;0.68;;;;;;;;;;5046483;28;20040;-76
2022/05/18 03:15:33;;;;;;;0.30;0.30;;;;;;;;;;5045062;28;20018;-76
2022/05/18 03:17:59;;;;;;;0.00;0.00;;;;;;;;;;5043061;28;20103;-76
2022/05/18 03:25:54;;;;;;;0.45;0.45;;;;;;;;;;5047736;28;20138;-76
2022/05/18 03:28:20;;;;;;;0.10;0.10;;;;;;;;;;5049039;28;20033;-76
2022/05/18 03:30:46;;;;;;;0.45;0.43;;;;;;;;;;5046848;28;20025;-76
2022/05/18 03:33:12;;;;;;;0.13;0.13;;;;;;;;;;5041769;28;20044;-76
2022/05/18 03:35:38;;;;;;;0.52;0.52;;;;;;;;;;5045035;28;20151;-76
2022/05/18 03:38:05;;;;;;;0.68;0.63;;;;;;;;;;5043214;28;20404;-76
2022/05/18 03:40:31;;;;;;;0.38;0.30;;;;;;;;;;5045795;28;20029;-76
2022/05/18 03:42:57;;;;;;;0.50;0.40;;;;;;;;;;5048971;28;20611;-76
2022/05/18 03:45:23;;;;;;;0.28;0.28;;;;;;;;;;5045413;28;20028;-75
2022/05/18 03:47:49;;;;;;;0.10;0.10;;;;;;;;;;5045799;28;20036;-76
2022/05/18 03:50:15;;;;;;;0.17;0.17;;;;;;;;;;5044833;28;20025;-76
2022/05/18 03:52:41;;;;;;;0.73;0.22;;;;;;;;;;5045506;28;20032;-76
2022/05/18 03:55:07;;;;;;;0.22;0.22;;;;;;;;;;5042753;28;20064;-76
2022/05/18 03:57:34;;;;;;;0.28;0.28;;;;;;;;;;5045262;28;20498;-76
2022/05/18 04:00:00;;;;;;;0.93;0.85;;;;;;;;;;5046530;28;20526;-76
2022/05/18 04:02:26;;;;;;;0.10;0.10;;;;;;;;;;5046333;28;20028;-76
2022/05/18 04:04:52;;;;;;;0.65;0.65;;;;;;;;;;5045751;28;20376;-76
2022/05/18 04:07:17;;;;;;;0.10;0.10;;;;;;;;;;5045671;28;20025;-76
2022/05/18 04:09:47;;;;;;;0.00;0.00;;;;;;;;;;5044801;28;20021;-76
2022/05/18 04:12:13;;;;;;;0.35;0.35;;;;;;;;;;5048362;28;20487;-76
2022/05/18 04:14:38;;;;;;;0.20;0.20;;;;;;;;;;5048315;28;20041;-76
2022/05/18 04:17:04;;;;;;;0.00;0.00;;;;;;;;;;5046067;28;20057;-76
2022/05/18 04:19:30;;;;;;;0.25;0.22;;;;;;;;;;5046625;28;20020;-76
2022/05/18 04:21:56;;;;;;;0.10;0.10;;;;;;;;;;5042694;28;20017;-75
2022/05/18 04:24:22;;;;;;;0.30;0.20;;;;;;;;;;5044062;28;20025;-76
2022/05/18 04:26:48;;;;;;;0.20;0.20;;;;;;;;;;5040821;28;20046;-76
2022/05/18 04:29:14;;;;;;;0.52;0.28;;;;;;;;;;5044089;28;20025;-76
2022/05/18 04:31:41;;;;;;;0.10;0.10;;;;;;;;;;5044654;28;20056;-76
2022/05/18 04:34:07;;;;;;;0.52;0.45;;;;;;;;;;5043327;28;20021;-76
2022/05/18 04:36:33;;;;;;;0.65;0.35;;;;;;;;;;5043629;28;20028;-76
2022/05/18 04:38:59;;;;;;;0.32;0.32;;;;;;;;;;5043780;28;20033;-76
2022/05/18 04:41:25;;;;;;;0.43;0.40;;;;;;;;;;5042962;28;20081;-76
2022/05/18 04:43:51;;;;;;;0.68;0.43;;;;;;;;;;5049077;28;20024;-76
2022/05/18 04:46:17;;;;;;;0.20;0.20;;;;;;;;;;5045360;28;20482;-76
2022/05/18 04:48:43;;;;;;;0.38;0.10;;;;;;;;;;5044858;28;20115;-76
2022/05/18 04:51:09;;;;;;;0.20;0.20;;;;;;;;;;5046138;28;20507;-76
2022/05/18 04:53:35;;;;;;;0.40;0.40;;;;;;;;;;5039838;28;20026;-76
2022/05/18 04:56:01;;;;;;;0.40;0.40;;;;;;;;;;5039969;28;20025;-75
2022/05/18 04:58:27;;;;;;;0.30;0.30;;;;;;;;;;5048783;28;20502;-76
2022/05/18 05:00:57;;;;;;;0.45;0.28;;;;;;;;;;5042710;28;20155;-77
2022/05/18 05:03:23;;;;;;;0.15;0.15;;;;;;;;;;5045753;28;20040;-75
2022/05/18 05:05:49;;;;;;;0.15;0.15;;;;;;;;;;5045845;28;20041;-77
2022/05/18 05:08:15;;;;;;;0.15;0.15;;;;;;;;;;5041752;28;20112;-76
2022/05/18 05:10:41;;;;;;;0.45;0.20;;;;;;;;;;5046950;28;20150;-77
2022/05/18 05:13:07;;;;;;;0.40;0.40;;;;;;;;;;5040446;28;20457;-76
2022/05/18 05:15:33;;;;;;;0.32;0.32;;;;;;;;;;5046765;28;20036;-75
2022/05/18 05:17:59;;;;;;;0.20;0.20;;;;;;;;;;5039897;28;20028;-77
2022/05/18 05:20:25;;;;;;;0.10;0.10;;;;;;;;;;5046356;28;20052;-77
2022/05/18 05:22:50;;;;;;;0.20;0.20;;;;;;;;;;5045561;28;20036;-77
2022/05/18 05:25:16;;;;;;;0.43;0.20;;;;;;;;;;5043661;28;20029;-77
2022/05/18 05:27:42;;;;;;;2.55;0.82;;;;;;;;;;5035127;28;20468;-77
2022/05/18 05:30:09;;;;;;;0.38;0.22;;;;;;;;;;5042573;28;20108;-76
2022/05/18 05:32:36;;;;;;;0.30;0.30;;;;;;;;;;5045359;28;20029;-77
2022/05/18 05:35:02;;;;;;;0.45;0.40;;;;;;;;;;5040395;28;20043;-77
2022/05/18 05:37:28;;;;;;;0.32;0.32;;;;;;;;;;5043636;28;20043;-77
2022/05/18 05:39:55;;;;;;;2.35;0.52;;;;;;;;;;5045083;28;20467;-77
2022/05/18 05:42:21;;;;;;;0.30;0.20;;;;;;;;;;5041675;28;20537;-77
2022/05/18 05:44:47;;;;;;;0.22;0.22;;;;;;;;;;5032222;28;20029;-76
2022/05/18 05:47:13;;;;;;;0.10;0.10;;;;;;;;;;5041540;28;21786;-77
2022/05/18 05:49:39;;;;;;;0.32;0.32;;;;;;;;;;5039442;28;20013;-77
2022/05/18 05:52:06;;;;;;;0.20;0.20;;;;;;;;;;5042769;28;20104;-76
2022/05/18 05:54:33;;;;;;;1.05;0.50;;;;;;;;;;5043070;28;20025;-76
2022/05/18 05:57:02;;;;;;;0.40;0.22;;;;;;;;;;5045688;28;20032;-77
2022/05/18 05:59:29;;;;;;;0.40;0.40;;;;;;;;;;5049165;28;20025;-78
2022/05/18 06:01:58;;;;;;;0.30;0.30;;;;;;;;;;5041185;28;20104;-73
2022/05/18 06:04:24;;;;;;;0.57;0.57;;;;;;;;;;5045681;28;20049;-75
2022/05/18 06:06:50;;;;;;;0.30;0.30;;;;;;;;;;5052806;28;20396;-75
2022/05/18 06:09:16;;;;;;;0.75;0.17;;;;;;;;;;5049735;28;20384;-76
2022/05/18 06:11:42;;;;;;;0.30;0.28;;;;;;;;;;5046165;28;20077;-74
2022/05/18 06:14:08;;;;;;;0.38;0.22;;;;;;;;;;5046539;28;20025;-75
2022/05/18 06:16:34;;;;;;;1.58;0.80;;;;;;;;;;5034408;28;20025;-74
2022/05/18 06:19:01;;;;;;;1.30;0.55;;;;;;;;;;5047967;28;20029;-76
2022/05/18 06:21:27;;;;;;;0.00;0.00;;;;;;;;;;5065084;28;20025;-75
2022/05/18 06:23:53;;;;;;;0.20;0.20;;;;;;;;;;5048465;28;20028;-76
2022/05/18 06:26:19;;;;;;;0.88;0.65;;;;;;;;;;5049798;28;20348;-73
2022/05/18 06:28:45;;;;;;;0.50;0.50;;;;;;;;;;5041278;28;20796;-75
2022/05/18 06:31:11;;;;;;;0.20;0.20;;;;;;;;;;5047499;28;20035;-75
2022/05/18 06:33:37;;;;;;;0.10;0.10;;;;;;;;;;5045394;28;20013;-75
2022/05/18 06:36:03;;;;;;;0.30;0.30;;;;;;;;;;5035490;28;20040;-75
2022/05/18 06:38:29;;;;;;;3.03;0.47;;;;;;;;;;5039688;28;20043;-75
2022/05/18 06:43:41;;;;;;;0.20;0.20;;;;;;;;;;5040703;28;20438;-77
2022/05/18 06:46:07;;;;;;;0.17;0.10;;;;;;;;;;5048523;28;20028;-75
2022/05/18 06:48:33;;;;;;;0.22;0.15;;;;;;;;;;5043762;28;20022;-74
2022/05/18 06:50:59;;;;;;;1.25;0.30;;;;;;;;;;5047335;28;20039;-74
2022/05/18 06:53:25;;;;;;;2.15;0.47;;;;;;;;;;5045055;28;20032;-79
2022/05/18 06:55:51;;;;;;;0.57;0.57;;;;;;;;;;5039691;28;20091;-75
2022/05/18 06:58:18;;;;;;;0.75;0.50;;;;;;;;;;5045641;28;20037;-74
2022/05/18 07:00:44;;;;;;;0.63;0.60;;;;;;;;;;5043256;28;20479;-74
2022/05/18 07:03:11;;;;;;;0.43;0.28;;;;;;;;;;5040782;28;20037;-75
2022/05/18 07:05:37;;;;;;;0.30;0.30;;;;;;;;;;5046577;28;20500;-74
2022/05/18 07:08:06;;;;;;;0.22;0.22;;;;;;;;;;5033237;28;20021;-75
2022/05/18 07:10:32;;;;;;;0.30;0.30;;;;;;;;;;5049223;28;20029;-75
2022/05/18 07:12:58;;;;;;;0.95;0.43;;;;;;;;;;5049448;28;20104;-75
2022/05/18 07:15:24;;;;;;;0.63;0.40;;;;;;;;;;5034092;28;20033;-75
2022/05/18 07:17:49;;;;;;;1.17;0.52;;;;;;;;;;5031146;28;20083;-74
2022/05/18 07:20:15;;;;;;;0.52;0.52;;;;;;;;;;5031011;28;20027;-75
2022/05/18 07:22:41;;;;;;;0.63;0.43;;;;;;;;;;5038218;28;20083;-75
2022/05/18 07:25:08;;;;;;;0.10;0.10;;;;;;;;;;5032399;28;20524;-74
2022/05/18 07:27:33;;;;;;;1.70;0.95;;;;;;;;;;5041177;28;20057;-74
2022/05/18 07:30:02;;;;;;;1.85;0.85;;;;;;;;;;5044736;28;20106;-74
2022/05/18 07:32:28;;;;;;;0.93;0.38;;;;;;;;;;5043761;28;20048;-74
2022/05/18 07:34:54;;;;;;;0.20;0.20;;;;;;;;;;5045354;28;20114;-78
2022/05/18 07:37:20;;;;;;;0.45;0.45;;;;;;;;;;5030796;28;20466;-83
2022/05/18 07:39:46;;;;;;;3.80;0.88;;;;;;;;;;5036446;28;20691;-77
2022/05/18 07:42:12;;;;;;;0.52;0.47;;;;;;;;;;5045297;28;20060;-78
2022/05/18 07:44:38;;;;;;;0.88;0.82;;;;;;;;;;5046739;28;20040;-77
2022/05/18 07:47:06;;;;;;;0.70;0.70;;;;;;;;;;5043508;28;20072;-78
2022/05/18 07:49:36;;;;;;;0.52;0.43;;;;;;;;;;5050233;28;20025;-78
2022/05/18 07:52:02;;;;;;;1.00;0.95;;;;;;;;;;5048864;28;20044;-78
2022/05/18 07:54:28;;;;;;;3.15;1.02;;;;;;;;;;5048344;28;20021;-78
2022/05/18 07:56:54;;;;;;;0.77;0.73;;;;;;;;;;5047331;28;20027;-78
2022/05/18 07:59:20;;;;;;;0.60;0.57;;;;;;;;;;5049038;28;20117;-78
2022/05/18 08:01:46;;;;;;;0.57;0.57;;;;;;;;;;5049219;28;20399;-77
2022/05/18 08:04:12;;;;;;;1.00;0.90;;;;;;;;;;5047833;28;20028;-78
2022/05/18 08:06:38;;;;;;;0.47;0.47;;;;;;;;;;5045789;28;20053;-76
2022/05/18 08:09:04;;;;;;;0.82;0.70;;;;;;;;;;5050070;28;20016;-76
2022/05/18 08:16:59;;;;;;;1.75;0.93;;;;;;;;;;5047156;28;20036;-75
2022/05/18 08:19:25;;;;;;;1.88;0.93;;;;;;;;;;5041955;28;20021;-75
2022/05/18 08:21:51;;;;;;;1.95;1.13;;;;;;;;;;5043174;28;20162;-76
2022/05/18 08:24:17;;;;;;;1.05;0.30;;;;;;;;;;5050042;28;20104;-75
2022/05/18 08:26:43;;;;;;;0.70;0.65;;;;;;;;;;5047438;28;20035;-75
2022/05/18 08:29:09;;;;;;;0.88;0.75;;;;;;;;;;5046023;28;20033;-75
2022/05/18 08:31:35;;;;;;;4.72;0.98;;;;;;;;;;5044619;28;20120;-76
2022/05/18 08:34:01;;;;;;;1.38;0.80;;;;;;;;;;5036158;28;20104;-75
2022/05/18 08:36:28;;;;;;;2.40;0.77;;;;;;;;;;5049571;28;20032;-76
2022/05/18 08:38:54;;;;;;;2.05;0.93;;;;;;;;;;5044431;28;20028;-76
2022/05/18 08:41:22;;;;;;;2.83;1.30;;;;;;;;;;5047860;28;20036;-76
2022/05/18 08:43:58;;;;;;;0.95;0.75;;;;;;;;;;5029532;28;20057;-77
2022/05/18 08:46:27;;;;;;;0.98;0.88;;;;;;;;;;5034856;28;20081;-76
2022/05/18 08:49:12;;;;;;;0.75;0.52;;;;;;;;;;5047414;28;20036;-86
2022/05/18 08:51:53;;;;;;;1.17;0.82;;;;;;;;;;5047381;28;20021;-76
2022/05/18 08:54:43;;;;;;;0.75;0.70;;;;;;;;;;5049634;28;20079;-76
2022/05/18 08:57:15;;;;;;;0.43;0.43;;;;;;;;;;5046081;28;20785;-76
2022/05/18 08:59:42;;;;;;;2.38;1.02;;;;;;;;;;5049464;28;20067;-75
2022/05/18 09:02:17;;;;;;;1.05;0.82;;;;;;;;;;5046885;28;20087;-76
2022/05/18 09:04:47;;;;;;;0.98;0.88;;;;;;;;;;5038999;28;20404;-76
2022/05/18 09:07:16;;;;;;;1.17;0.85;;;;;;;;;;5045868;28;20454;-77
2022/05/18 09:12:37;;;;;;;3.67;1.02;;;;;;;;;;5045510;28;20125;-80
2022/05/18 09:15:04;;;;;;;0.88;0.80;;;;;;;;;;5039877;28;20435;-79
2022/05/18 09:17:35;;;;;;;2.33;1.15;;;;;;;;;;5045553;28;20052;-80
2022/05/18 09:20:15;;;;;;;1.17;1.00;;;;;;;;;;5042693;28;20115;-80
2022/05/18 09:22:56;;;;;;;2.25;1.27;;;;;;;;;;5036825;28;20037;-79
2022/05/18 09:25:40;;;;;;;1.65;0.95;;;;;;;;;;5043823;28;20119;-78
2022/05/18 09:28:12;;;;;;;2.17;1.35;;;;;;;;;;5048623;28;20070;-78
2022/05/18 09:30:52;;;;;;;4.45;1.40;;;;;;;;;;5046615;28;20029;-78
2022/05/18 09:33:28;;;;;;;1.02;0.85;;;;;;;;;;5047190;28;20438;-78
2022/05/18 09:36:06;;;;;;;1.77;1.45;;;;;;;;;;5044747;28;20036;-78
2022/05/18 09:39:08;;;;;;;1.98;1.45;;;;;;;;;;5028695;28;20033;-78
2022/05/18 09:41:42;;;;;;;1.30;1.20;;;;;;;;;;4964207;28;20034;-77
2022/05/18 09:44:30;;;;;;;2.05;1.75;;;;;;;;;;5035486;28;20479;-79
2022/05/18 09:46:57;;;;;;;3.70;1.52;;;;;;;;;;5038599;28;20021;-78
2022/05/18 09:49:36;;;;;;;1.38;1.05;;;;;;;;;;5027884;28;20052;-77
2022/05/18 09:52:02;;;;;;;1.27;0.95;;;;;;;;;;5033587;28;20033;-78
2022/05/18 09:54:32;;;;;;;2.60;1.88;;;;;;;;;;5027304;28;20033;-78
2022/05/18 09:57:18;;;;;;;1.35;0.95;;;;;;;;;;5027764;28;20029;-78
2022/05/18 09:59:46;;;;;;;3.17;1.73;;;;;;;;;;5027154;28;20103;-78
2022/05/18 10:07:52;;;;;;;3.10;1.45;;;;;;;;;;5030340;28;20483;-77
2022/05/18 10:10:20;;;;;;;2.25;1.40;;;;;;;;;;5027082;28;20405;-77
2022/05/18 10:12:48;;;;;;;2.53;1.27;;;;;;;;;;5027596;28;20472;-78
2022/05/18 10:15:22;;;;;;;1.77;1.48;;;;;;;;;;5027442;28;20116;-78
2022/05/18 10:17:53;;;;;;;3.28;1.75;;;;;;;;;;5027373;28;20468;-78
2022/05/18 10:20:29;;;;;;;2.60;1.90;;;;;;;;;;5027474;28;20028;-77
2022/05/18 10:22:56;;;;;;;1.98;1.60;;;;;;;;;;5027554;28;20084;-78
2022/05/18 10:25:41;;;;;;;5.70;2.25;;;;;;;;;;5041791;28;20109;-78
2022/05/18 10:28:18;;;;;;;2.20;1.63;;;;;;;;;;5047079;28;20025;-78
2022/05/18 10:30:53;;;;;;;3.47;1.77;;;;;;;;;;5047384;28;20021;-78
2022/05/18 10:33:22;;;;;;;2.22;1.60;;;;;;;;;;5046936;28;20032;-77
2022/05/18 10:35:50;;;;;;;4.28;1.60;;;;;;;;;;5047152;28;20021;-77
2022/05/18 10:38:20;;;;;;;4.78;1.80;;;;;;;;;;5047321;28;20060;-77
2022/05/18 10:40:46;;;;;;;1.30;0.95;;;;;;;;;;5045225;28;20025;-79
2022/05/18 10:43:33;;;;;;;3.10;1.60;;;;;;;;;;5046947;28;20037;-78
2022/05/18 10:46:03;;;;;;;1.83;1.45;;;;;;;;;;5028018;28;20633;-78
2022/05/18 10:48:31;;;;;;;6.97;1.87;;;;;;;;;;5030979;28;20045;-78
2022/05/18 10:51:02;;;;;;;1.88;1.63;;;;;;;;;;5030689;28;20419;-78
2022/05/18 10:53:30;;;;;;;2.25;1.60;;;;;;;;;;5030637;28;20041;-78
2022/05/18 10:56:05;;;;;;;1.50;1.23;;;;;;;;;;5030715;28;20037;-79
2022/05/18 10:58:34;;;;;;;2.83;1.60;;;;;;;;;;5032533;28;20095;-79
2022/05/18 11:01:07;;;;;;;1.38;1.27;;;;;;;;;;5030172;28;20492;-79
2022/05/18 11:03:36;;;;;;;2.70;1.60;;;;;;;;;;5030463;28;20112;-78
2022/05/18 11:06:07;;;;;;;2.22;1.52;;;;;;;;;;5029789;28;20041;-78
2022/05/18 11:08:33;;;;;;;2.00;1.53;;;;;;;;;;5030653;28;20029;-78
2022/05/18 11:10:58;;;;;;;5.20;1.92;;;;;;;;;;5030403;28;20326;-78
2022/05/18 11:13:27;;;;;;;3.35;2.08;;;;;;;;;;5031683;28;20250;-79
2022/05/18 11:16:01;;;;;;;2.08;1.65;;;;;;;;;;5050223;28;20044;-78
2022/05/18 11:18:34;;;;;;;2.95;1.45;;;;;;;;;;5049117;28;20033;-78
2022/05/18 11:21:07;;;;;;;2.28;2.00;;;;;;;;;;5050307;28;20025;-78
2022/05/18 11:23:52;;;;;;;2.10;1.52;;;;;;;;;;5050065;28;20086;-78
2022/05/18 11:26:36;;;;;;;1.45;1.35;;;;;;;;;;5050039;28;20083;-78
2022/05/18 11:29:12;;;;;;;1.73;1.48;;;;;;;;;;5050232;28;20067;-79
2022/05/18 11:31:38;;;;;;;3.42;1.60;;;;;;;;;;5044653;28;20025;-79
2022/05/18 11:34:22;;;;;;;2.63;1.73;;;;;;;;;;5029450;28;20482;-78
2022/05/18 11:37:07;;;;;;;2.53;1.70;;;;;;;;;;5029834;28;20029;-79
2022/05/18 11:39:39;;;;;;;2.28;1.65;;;;;;;;;;5037795;28;20029;-78
2022/05/18 11:42:17;;;;;;;3.88;1.45;;;;;;;;;;5061559;28;20076;-79
2022/05/18 11:44:46;;;;;;;1.40;1.20;;;;;;;;;;5049502;28;20476;-79
2022/05/18 11:47:27;;;;;;;1.92;1.70;;;;;;;;;;5038221;28;20022;-79
2022/05/18 11:49:58;;;;;;;1.20;1.08;;;;;;;;;;5042609;28;20432;-78
2022/05/18 11:52:34;;;;;;;1.50;1.40;;;;;;;;;;5049776;28;20029;-79
2022/05/18 11:55:20;;;;;;;1.75;1.38;;;;;;;;;;5049498;28;20537;-79
2022/05/18 11:57:51;;;;;;;3.00;1.75;;;;;;;;;;5048919;28;20029;-78
2022/05/18 12:00:43;;;;;;;1.60;1.27;;;;;;;;;;5049490;28;20021;-79
2022/05/18 12:03:06;;;;;;;2.40;1.75;;;;;;;;;;5049051;28;20495;-78
2022/05/18 12:05:33;;;;;;;3.08;1.98;;;;;;;;;;5048867;28;20109;-79
2022/05/18 12:08:39;;;;;;;2.65;1.50;;;;;;;;;;5037618;28;20029;-79
2022/05/18 12:11:09;;;;;;;1.55;1.30;;;;;;;;;;5028620;28;20022;-79
2022/05/18 12:13:50;;;;;;;2.08;1.30;;;;;;;;;;5029143;28;20048;-79
2022/05/18 12:16:16;;;;;;;;;;;;;;;;;;5029263;28;20025;-79
2022/05/18 12:18:57;;;;;;;1.38;1.05;;;;;;;;;;5029104;28;20360;-78
2022/05/18 12:21:27;;;;;;;1.75;1.55;;;;;;;;;;5028867;28;20040;-79
2022/05/18 12:23:58;;;;;;;1.38;1.25;;;;;;;;;;5028336;28;20033;-78
2022/05/18 12:26:24;;;;;;;;;;;;;;;;;;5027972;28;20308;-79
2022/05/18 12:28:50;;;;;;;1.70;1.52;;;;;;;;;;5028018;28;19916;-79
2022/05/18 12:31:17;;;;;;;1.83;1.42;;;;;;;;;;5028818;28;20025;-79
2022/05/18 12:34:01;;;;;;;1.58;1.48;;;;;;;;;;5028858;28;20032;-79
2022/05/18 12:36:41;;;;;;;5.70;2.08;;;;;;;;;;5028519;28;20033;-79
2022/05/18 12:39:11;;;;;;;2.53;1.60;;;;;;;;;;5033040;28;20086;-79
2022/05/18 12:41:38;;;;;;;1.58;1.48;;;;;;;;;;5046977;28;20090;-79
2022/05/18 12:44:09;;;;;;;2.15;1.63;;;;;;;;;;5048428;28;20055;-79
2022/05/18 12:46:55;;;;;;;1.73;1.45;;;;;;;;;;5041980;28;20468;-79
2022/05/18 12:49:31;;;;;;;2.65;1.40;;;;;;;;;;5028475;28;20108;-79
2022/05/18 12:52:02;;;;;;;1.40;1.30;;;;;;;;;;5028649;28;20036;-79
2022/05/18 12:54:33;;;;;;;1.80;1.25;;;;;;;;;;5035229;28;20021;-79
2022/05/18 12:57:05;;;;;;;2.40;1.70;;;;;;;;;;5038069;28;20032;-79
2022/05/18 12:59:45;;;;;;;2.15;1.50;;;;;;;;;;5028559;28;20025;-80
2022/05/18 13:02:20;;;;;;;2.72;1.52;;;;;;;;;;5037211;28;20030;-79
2022/05/18 13:04:46;;;;;;;1.80;1.50;;;;;;;;;;5034387;28;20045;-79
2022/05/18 13:07:20;;;;;;;2.63;1.65;;;;;;;;;;5048275;28;20024;-79
2022/05/18 13:09:47;;;;;;;2.25;1.45;;;;;;;;;;5040494;28;20091;-79
2022/05/18 13:12:28;;;;;;;2.25;1.60;;;;;;;;;;5042972;28;20437;-78
2022/05/18 13:15:12;;;;;;;2.15;1.60;;;;;;;;;;5046669;28;20029;-77
2022/05/18 13:17:47;;;;;;;1.60;1.50;;;;;;;;;;5046315;28;20120;-78
2022/05/18 13:20:22;;;;;;;1.38;1.27;;;;;;;;;;5040269;28;20422;-78
2022/05/18 13:23:00;;;;;;;2.67;1.55;;;;;;;;;;5042148;28;20493;-79
2022/05/18 13:25:27;;;;;;;1.90;1.58;;;;;;;;;;5033245;28;20036;-79
2022/05/18 13:27:55;;;;;;;1.95;1.67;;;;;;;;;;5039749;28;20391;-79
2022/05/18 13:30:24;;;;;;;2.30;1.80;;;;;;;;;;5038037;28;20430;-78
2022/05/18 13:32:50;;;;;;;2.75;1.90;;;;;;;;;;5047475;28;20036;-78
2022/05/18 13:35:21;;;;;;;3.78;1.60;;;;;;;;;;5038729;28;20677;-79
2022/05/18 13:37:53;;;;;;;2.88;1.60;;;;;;;;;;5044345;28;20029;-79
2022/05/18 13:40:21;;;;;;;2.20;2.03;;;;;;;;;;5051253;28;20709;-79
2022/05/18 13:42:48;;;;;;;2.47;1.83;;;;;;;;;;5040189;28;20545;-76
2022/05/18 13:45:15;;;;;;;4.68;1.63;;;;;;;;;;5038180;28;20031;-79
2022/05/18 13:47:48;;;;;;;2.58;1.90;;;;;;;;;;5040249;28;20037;-79
2022/05/18 13:50:24;;;;;;;1.95;1.75;;;;;;;;;;5039482;28;20064;-77
2022/05/18 13:52:50;;;;;;;1.42;1.33;;;;;;;;;;5031110;28;20025;-78
2022/05/18 13:55:19;;;;;;;2.15;1.92;;;;;;;;;;5039705;28;20020;-77
2022/05/18 13:57:47;;;;;;;2.55;1.50;;;;;;;;;;5042118;28;20036;-77
2022/05/18 14:00:25;;;;;;;2.03;1.60;;;;;;;;;;5045742;28;20549;-78
2022/05/18 14:02:53;;;;;;;2.92;2.08;;;;;;;;;;5036136;28;20488;-78
2022/05/18 14:05:19;;;;;;;1.60;1.50;;;;;;;;;;5031942;28;20049;-78
2022/05/18 14:07:49;;;;;;;2.78;1.95;;;;;;;;;;5040657;28;20402;-78
2022/05/18 14:10:18;;;;;;;3.05;2.05;;;;;;;;;;5041692;28;20041;-74
2022/05/18 14:12:48;;;;;;;1.85;1.38;;;;;;;;;;5043057;28;20029;-75
2022/05/18 14:15:15;;;;;;;2.13;1.50;;;;;;;;;;5043532;28;20033;-76
2022/05/18 14:17:41;;;;;;;1.65;1.40;;;;;;;;;;5038904;28;20032;-75
2022/05/18 14:20:25;;;;;;;2.05;1.63;;;;;;;;;;5043657;28;20028;-76
2022/05/18 14:22:57;;;;;;;1.90;1.35;;;;;;;;;;5052212;28;20364;-75
2022/05/18 14:25:34;;;;;;;3.40;1.90;;;;;;;;;;5046498;28;20033;-74
2022/05/18 14:28:02;;;;;;;3.35;1.98;;;;;;;;;;5049797;28;20028;-74
2022/05/18 14:30:34;;;;;;;1.75;1.60;;;;;;;;;;5049654;28;20031;-74
2022/05/18 14:33:08;;;;;;;2.47;2.05;;;;;;;;;;5043987;28;20056;-76
2022/05/18 14:35:36;;;;;;;2.00;1.80;;;;;;;;;;5044572;28;20033;-77
2022/05/18 14:38:05;;;;;;;3.10;1.70;;;;;;;;;;5047450;28;20357;-74
2022/05/18 14:40:40;;;;;;;1.30;1.20;;;;;;;;;;5047289;28;20427;-78
2022/05/18 14:43:10;;;;;;;1.50;1.40;;;;;;;;;;5047616;28;20033;-75
2022/05/18 14:45:43;;;;;;;1.90;1.70;;;;;;;;;;5047166;28;20037;-74
2022/05/18 14:48:16;;;;;;;1.58;1.48;;;;;;;;;;5048715;28;20025;-75
2022/05/18 14:50:46;;;;;;;2.13;1.60;;;;;;;;;;5044552;28;20468;-75
2022/05/18 14:53:16;;;;;;;1.33;1.23;;;;;;;;;;5041575;28;20045;-74
2022/05/18 14:55:44;;;;;;;2.95;2.20;;;;;;;;;;5043839;28;20547;-74
2022/05/18 14:58:12;;;;;;;1.38;1.13;;;;;;;;;;5051112;28;20029;-75
2022/05/18 15:00:48;;;;;;;1.33;1.23;;;;;;;;;;5041346;28;20025;-75
2022/05/18 15:03:15;;;;;;;2.95;1.88;;;;;;;;;;5035361;28;20025;-74
2022/05/18 15:05:45;;;;;;;1.55;1.45;;;;;;;;;;5037912;28;20072;-73
2022/05/18 15:08:14;;;;;;;1.85;1.70;;;;;;;;;;5041620;28;20155;-74
2022/05/18 15:10:42;;;;;;;3.08;1.80;;;;;;;;;;5049507;28;20752;-75
2022/05/18 15:13:08;;;;;;;2.47;1.83;;;;;;;;;;5047057;28;20120;-73
2022/05/18 15:15:51;;;;;;;2.10;1.85;;;;;;;;;;5037768;28;20112;-74
2022/05/18 15:18:17;;;;;;;1.92;1.73;;;;;;;;;;5048193;28;20522;-74
2022/05/18 15:20:44;;;;;;;2.20;1.70;;;;;;;;;;5050375;28;20036;-75